createdAt,value
2022-10-08T00:05:24.716Z,96.02
2022-10-08T00:14:59.424Z,94.48
2022-10-08T00:24:33.936Z,93.93
2022-10-08T00:34:08.378Z,93.41
2022-10-08T00:43:44.566Z,93.81
2022-10-08T00:53:18.684Z,93.84
2022-10-08T01:02:53.020Z,93.92
2022-10-08T01:12:25.519Z,93.84
2022-10-08T01:21:59.519Z,93.05
2022-10-08T01:31:33.299Z,92.81
2022-10-08T01:41:07.457Z,92.16
2022-10-08T01:50:45.000Z,93.62
2022-10-08T02:00:16.872Z,95.04
2022-10-08T02:09:49.281Z,94.91
2022-10-08T02:19:23.582Z,96.00
2022-10-08T02:28:57.709Z,96.90
2022-10-08T02:38:33.166Z,96.10
2022-10-08T02:48:05.740Z,96.75
2022-10-08T02:57:40.081Z,97.39
2022-10-08T03:07:14.195Z,97.35
2022-10-08T03:16:48.505Z,96.08
2022-10-08T03:26:22.341Z,95.42
2022-10-08T03:35:56.410Z,96.82
2022-10-08T03:45:30.567Z,96.84
2022-10-08T03:55:05.827Z,98.58
2022-10-08T04:04:39.904Z,99.53
2022-10-08T04:14:12.253Z,99.08
2022-10-08T04:23:47.922Z,98.55
2022-10-08T04:33:20.451Z,98.04
2022-10-08T04:42:56.341Z,97.64
2022-10-08T04:52:30.576Z,97.30
2022-10-08T05:02:02.995Z,96.85
2022-10-08T05:11:37.205Z,96.83
2022-10-08T05:21:10.985Z,96.90
2022-10-08T05:30:45.135Z,96.90
2022-10-08T05:40:18.854Z,96.78
2022-10-08T05:49:52.802Z,97.59
2022-10-08T05:59:26.789Z,97.32
2022-10-08T06:09:00.447Z,97.05
2022-10-08T06:18:34.512Z,97.92
2022-10-08T06:28:08.740Z,98.74
2022-10-08T06:37:42.515Z,99.35
2022-10-08T06:47:16.811Z,100.00
2022-10-08T06:56:51.023Z,99.79
2022-10-08T07:06:25.347Z,99.64
2022-10-08T07:15:59.692Z,99.63
2022-10-08T07:25:34.298Z,99.14
2022-10-08T07:35:09.202Z,96.89
2022-10-08T07:44:44.494Z,94.16
2022-10-08T07:54:19.258Z,91.85
2022-10-08T08:03:53.611Z,89.35
2022-10-08T08:13:30.793Z,85.65
2022-10-08T08:23:03.688Z,83.75
2022-10-08T08:32:40.332Z,81.46
2022-10-08T08:42:13.321Z,78.58
2022-10-08T08:43:17.474Z,78.60
2022-10-08T08:52:50.046Z,79.52
2022-10-08T08:53:53.767Z,79.53
2022-10-08T09:03:26.585Z,78.81
2022-10-08T09:04:30.603Z,78.66
2022-10-08T09:05:34.805Z,78.83
2022-10-08T09:15:07.707Z,77.23
2022-10-08T09:16:11.719Z,78.28
2022-10-08T09:17:15.682Z,78.17
2022-10-08T09:18:19.556Z,77.63
2022-10-08T09:19:21.975Z,78.04
2022-10-08T09:20:26.121Z,77.08
2022-10-08T09:21:30.018Z,77.00
2022-10-08T09:22:32.355Z,77.09
2022-10-08T09:23:34.777Z,78.39
2022-10-08T09:24:37.317Z,77.40
2022-10-08T09:25:41.335Z,76.43
2022-10-08T09:26:45.323Z,76.11
2022-10-08T09:27:47.679Z,77.28
2022-10-08T09:28:50.176Z,76.47
2022-10-08T09:29:54.273Z,76.13
2022-10-08T09:31:00.298Z,75.28
2022-10-08T09:32:02.172Z,75.47
2022-10-08T09:33:04.424Z,76.40
2022-10-08T09:34:06.880Z,75.28
2022-10-08T09:35:09.389Z,75.70
2022-10-08T09:36:11.908Z,75.19
2022-10-08T09:37:14.437Z,74.19
2022-10-08T09:38:16.853Z,74.07
2022-10-08T09:39:19.395Z,74.26
2022-10-08T09:40:21.845Z,74.56
2022-10-08T09:41:24.317Z,74.29
2022-10-08T09:42:26.801Z,74.52
2022-10-08T09:43:29.335Z,74.76
2022-10-08T09:44:31.782Z,75.09
2022-10-08T09:45:35.889Z,75.22
2022-10-08T09:46:38.215Z,75.39
2022-10-08T09:47:42.305Z,75.50
2022-10-08T09:48:44.638Z,77.19
2022-10-08T09:49:48.707Z,76.64
2022-10-08T09:50:52.713Z,75.69
2022-10-08T09:51:55.092Z,74.75
2022-10-08T09:52:57.545Z,74.09
2022-10-08T09:53:59.976Z,74.28
2022-10-08T09:55:02.433Z,73.54
2022-10-08T09:56:04.969Z,73.17
2022-10-08T09:57:07.401Z,72.56
2022-10-08T10:06:40.230Z,74.47
2022-10-08T10:07:42.776Z,74.99
2022-10-08T10:08:45.273Z,75.16
2022-10-08T10:09:47.769Z,74.77
2022-10-08T10:10:50.332Z,74.81
2022-10-08T10:11:52.873Z,75.09
2022-10-08T10:12:56.956Z,76.48
2022-10-08T10:14:03.163Z,75.53
2022-10-08T10:15:06.370Z,73.29
2022-10-08T10:16:10.269Z,73.01
2022-10-08T10:17:12.611Z,73.62
2022-10-08T10:18:15.041Z,72.32
2022-10-08T10:19:17.498Z,73.31
2022-10-08T10:20:20.009Z,73.17
2022-10-08T10:21:22.497Z,72.47
2022-10-08T10:22:24.995Z,72.09
2022-10-08T10:23:28.484Z,72.07
2022-10-08T10:24:30.949Z,71.57
2022-10-08T10:25:35.012Z,71.63
2022-10-08T10:26:37.275Z,71.22
2022-10-08T10:27:39.785Z,72.77
2022-10-08T10:28:42.252Z,73.12
2022-10-08T10:29:44.676Z,73.77
2022-10-08T10:30:48.726Z,74.19
2022-10-08T10:31:52.618Z,72.72
2022-10-08T10:32:54.922Z,73.57
2022-10-08T10:33:57.419Z,73.07
2022-10-08T10:34:59.934Z,73.16
2022-10-08T10:36:02.412Z,72.49
2022-10-08T10:37:04.822Z,71.80
2022-10-08T10:38:07.327Z,71.66
2022-10-08T10:39:11.428Z,73.77
2022-10-08T10:40:15.339Z,73.00
2022-10-08T10:41:19.296Z,73.09
2022-10-08T10:42:21.638Z,71.43
2022-10-08T10:43:25.640Z,71.30
2022-10-08T10:44:29.606Z,71.98
2022-10-08T10:45:33.491Z,71.64
2022-10-08T10:46:37.474Z,70.91
2022-10-08T10:47:39.770Z,71.55
2022-10-08T10:48:42.245Z,69.61
2022-10-08T10:49:44.755Z,71.41
2022-10-08T10:50:48.753Z,69.10
2022-10-08T10:51:51.163Z,69.96
2022-10-08T10:52:53.638Z,68.73
2022-10-08T10:53:56.097Z,70.90
2022-10-08T10:55:01.112Z,71.24
2022-10-08T10:56:04.949Z,70.48
2022-10-08T10:57:07.251Z,69.58
2022-10-08T10:58:09.745Z,70.33
2022-10-08T10:59:13.806Z,69.20
2022-10-08T11:00:16.164Z,69.56
2022-10-08T11:01:18.686Z,69.65
2022-10-08T11:02:22.840Z,70.01
2022-10-08T11:03:27.118Z,70.30
2022-10-08T11:04:29.549Z,68.46
2022-10-08T11:05:32.035Z,68.24
2022-10-08T11:06:36.104Z,68.56
2022-10-08T11:07:38.437Z,68.24
2022-10-08T11:08:42.502Z,67.65
2022-10-08T11:09:44.807Z,69.67
2022-10-08T11:10:48.896Z,71.30
2022-10-08T11:11:51.307Z,69.19
2022-10-08T11:12:55.364Z,70.54
2022-10-08T11:13:57.764Z,70.13
2022-10-08T11:15:00.194Z,70.23
2022-10-08T11:16:04.292Z,69.99
2022-10-08T11:17:06.626Z,70.52
2022-10-08T11:18:09.118Z,70.89
2022-10-08T11:19:11.549Z,68.99
2022-10-08T11:20:14.034Z,70.43
2022-10-08T11:21:18.145Z,71.02
2022-10-08T11:22:20.483Z,70.74
2022-10-08T11:23:22.955Z,71.68
2022-10-08T11:24:27.032Z,70.83
2022-10-08T11:25:29.433Z,70.87
2022-10-08T11:26:31.928Z,70.49
2022-10-08T11:27:34.430Z,69.79
2022-10-08T11:28:37.026Z,68.04
2022-10-08T11:29:41.021Z,69.44
2022-10-08T11:30:43.386Z,68.99
2022-10-08T11:31:47.469Z,70.48
2022-10-08T11:32:50.431Z,71.42
2022-10-08T11:33:52.336Z,70.95
2022-10-08T11:34:56.433Z,70.67
2022-10-08T11:35:59.769Z,71.59
2022-10-08T11:37:02.123Z,71.46
2022-10-08T11:38:04.693Z,69.51
2022-10-08T11:39:07.076Z,67.98
2022-10-08T11:40:09.594Z,68.35
2022-10-08T11:41:12.050Z,67.90
2022-10-08T11:42:16.078Z,68.70
2022-10-08T11:43:18.460Z,70.68
2022-10-08T11:44:22.557Z,68.82
2022-10-08T11:45:24.897Z,69.57
2022-10-08T11:46:29.136Z,68.57
2022-10-08T11:47:31.349Z,67.49
2022-10-08T11:48:33.812Z,68.68
2022-10-08T11:49:36.309Z,68.44
2022-10-08T11:50:38.817Z,67.99
2022-10-08T11:51:41.192Z,68.71
2022-10-08T11:52:43.727Z,68.91
2022-10-08T11:53:46.176Z,67.46
2022-10-08T11:54:55.224Z,68.00
2022-10-08T11:55:55.148Z,67.39
2022-10-08T11:56:57.466Z,66.84
2022-10-08T11:58:09.309Z,68.86
2022-10-08T11:59:03.915Z,67.80
2022-10-08T12:00:08.433Z,67.78
2022-10-08T12:01:08.885Z,67.68
2022-10-08T12:02:13.127Z,67.33
2022-10-08T12:03:15.574Z,67.97
2022-10-08T12:04:17.847Z,68.48
2022-10-08T12:05:20.404Z,68.36
2022-10-08T12:06:22.852Z,67.18
2022-10-08T12:07:25.405Z,67.94
2022-10-08T12:08:27.845Z,66.40
2022-10-08T12:09:31.942Z,69.43
2022-10-08T12:10:34.256Z,67.92
2022-10-08T12:11:38.374Z,65.76
2022-10-08T12:12:42.370Z,67.67
2022-10-08T12:13:44.706Z,66.66
2022-10-08T12:14:48.743Z,66.84
2022-10-08T12:15:56.719Z,65.36
2022-10-08T12:16:58.936Z,65.64
2022-10-08T12:18:01.427Z,65.62
2022-10-08T12:19:03.946Z,65.67
2022-10-08T12:20:06.395Z,64.11
2022-10-08T12:21:10.462Z,64.07
2022-10-08T12:22:14.470Z,64.71
2022-10-08T12:23:16.859Z,65.98
2022-10-08T12:24:19.351Z,65.02
2022-10-08T12:25:23.438Z,65.63
2022-10-08T12:26:25.856Z,63.77
2022-10-08T12:27:28.295Z,63.98
2022-10-08T12:28:32.437Z,64.61
2022-10-08T12:29:34.783Z,63.16
2022-10-08T12:30:37.301Z,60.88
2022-10-08T12:31:45.219Z,64.32
2022-10-08T12:32:44.783Z,62.61
2022-10-08T12:33:48.817Z,61.62
2022-10-08T12:34:51.120Z,63.98
2022-10-08T12:35:53.597Z,65.20
2022-10-08T12:36:56.047Z,63.73
2022-10-08T12:37:58.491Z,62.74
2022-10-08T12:39:01.049Z,61.71
2022-10-08T12:40:03.490Z,63.20
2022-10-08T12:41:05.984Z,62.03
2022-10-08T12:42:08.485Z,62.39
2022-10-08T12:43:10.959Z,61.73
2022-10-08T12:44:15.137Z,62.33
2022-10-08T12:45:17.470Z,63.34
2022-10-08T12:46:19.871Z,62.98
2022-10-08T12:47:22.314Z,62.47
2022-10-08T12:48:24.861Z,62.73
2022-10-08T12:49:27.319Z,64.67
2022-10-08T12:50:31.349Z,63.87
2022-10-08T12:51:35.302Z,64.19
2022-10-08T12:52:37.733Z,63.95
2022-10-08T12:53:40.185Z,64.33
2022-10-08T12:54:42.658Z,64.78
2022-10-08T12:55:46.752Z,66.01
2022-10-08T12:56:49.072Z,65.84
2022-10-08T12:57:53.089Z,65.44
2022-10-08T12:58:55.457Z,63.77
2022-10-08T12:59:57.892Z,64.61
2022-10-08T13:01:02.002Z,65.47
2022-10-08T13:02:05.887Z,65.21
2022-10-08T13:03:09.831Z,66.71
2022-10-08T13:04:12.169Z,67.93
2022-10-08T13:05:14.662Z,66.18
2022-10-08T13:06:17.135Z,65.15
2022-10-08T13:07:21.231Z,61.87
2022-10-08T13:08:23.577Z,63.60
2022-10-08T13:09:26.019Z,62.14
2022-10-08T13:10:28.500Z,62.26
2022-10-08T13:11:32.612Z,63.38
2022-10-08T13:12:36.543Z,59.82
2022-10-08T13:13:38.891Z,60.86
2022-10-08T13:14:41.497Z,59.75
2022-10-08T13:15:44.041Z,61.08
2022-10-08T13:16:46.545Z,60.44
2022-10-08T13:17:49.497Z,61.52
2022-10-08T13:18:51.471Z,62.54
2022-10-08T13:19:55.577Z,62.58
2022-10-08T13:20:57.949Z,61.60
2022-10-08T13:22:00.426Z,63.04
2022-10-08T13:23:05.107Z,60.70
2022-10-08T13:24:06.977Z,62.37
2022-10-08T13:25:10.932Z,59.22
2022-10-08T13:26:14.824Z,59.78
2022-10-08T13:27:18.713Z,61.44
2022-10-08T13:28:31.315Z,58.23
2022-10-08T13:29:23.604Z,58.53
2022-10-08T13:30:25.972Z,58.74
2022-10-08T13:31:30.131Z,60.16
2022-10-08T13:32:32.475Z,61.26
2022-10-08T13:33:36.529Z,62.98
2022-10-08T13:34:40.473Z,60.84
2022-10-08T13:35:42.761Z,61.66
2022-10-08T13:36:45.210Z,59.91
2022-10-08T13:37:49.500Z,61.28
2022-10-08T13:38:53.193Z,62.85
2022-10-08T13:39:55.552Z,59.52
2022-10-08T13:40:59.631Z,58.94
2022-10-08T13:42:02.026Z,61.98
2022-10-08T13:43:04.530Z,62.42
2022-10-08T13:44:07.913Z,61.98
2022-10-08T13:45:10.263Z,62.80
2022-10-08T13:46:12.797Z,62.43
2022-10-08T13:47:15.342Z,63.39
2022-10-08T13:48:19.254Z,62.86
2022-10-08T13:49:21.601Z,60.78
2022-10-08T13:50:24.128Z,62.36
2022-10-08T13:51:26.565Z,61.44
2022-10-08T13:52:28.982Z,63.22
2022-10-08T13:53:33.136Z,62.27
2022-10-08T13:54:40.276Z,61.51
2022-10-08T13:55:39.347Z,62.01
2022-10-08T13:56:43.425Z,63.70
2022-10-08T13:57:47.515Z,60.88
2022-10-08T13:58:49.603Z,60.58
2022-10-08T13:59:53.683Z,60.98
2022-10-08T14:00:57.774Z,61.46
2022-10-08T14:02:00.041Z,60.89
2022-10-08T14:03:02.593Z,61.50
2022-10-08T14:04:05.040Z,59.96
2022-10-08T14:05:09.149Z,60.61
2022-10-08T14:06:11.511Z,62.34
2022-10-08T14:07:13.964Z,61.50
2022-10-08T14:08:16.407Z,61.26
2022-10-08T14:09:20.512Z,59.86
2022-10-08T14:10:24.507Z,58.74
2022-10-08T14:11:26.817Z,59.17
2022-10-08T14:12:30.969Z,58.15
2022-10-08T14:13:33.271Z,57.11
2022-10-08T14:14:35.751Z,59.05
2022-10-08T14:15:39.802Z,57.02
2022-10-08T14:16:42.285Z,57.71
2022-10-08T14:17:46.627Z,57.39
2022-10-08T14:18:48.780Z,57.88
2022-10-08T14:19:51.234Z,59.89
2022-10-08T14:20:55.296Z,58.66
2022-10-08T14:21:59.227Z,57.75
2022-10-08T14:23:01.536Z,57.98
2022-10-08T14:24:05.637Z,59.65
2022-10-08T14:25:09.608Z,58.88
2022-10-08T14:26:11.945Z,56.98
2022-10-08T14:27:14.406Z,56.16
2022-10-08T14:28:16.928Z,56.98
2022-10-08T14:29:19.320Z,58.60
2022-10-08T14:30:21.862Z,58.74
2022-10-08T14:31:24.309Z,58.67
2022-10-08T14:32:26.703Z,54.68
2022-10-08T14:33:29.206Z,56.21
2022-10-08T14:34:31.714Z,52.99
2022-10-08T14:35:34.209Z,54.05
2022-10-08T14:36:36.698Z,56.38
2022-10-08T14:37:39.184Z,55.91
2022-10-08T14:38:41.632Z,54.51
2022-10-08T14:39:45.854Z,56.63
2022-10-08T14:40:48.148Z,51.75
2022-10-08T14:41:52.200Z,51.10
2022-10-08T14:42:54.550Z,50.30
2022-10-08T14:43:59.651Z,50.25
2022-10-08T14:45:01.904Z,53.53
2022-10-08T14:46:04.567Z,49.71
2022-10-08T14:47:06.858Z,50.12
2022-10-08T14:48:09.371Z,48.41
2022-10-08T14:49:11.889Z,48.43
2022-10-08T14:50:14.357Z,50.11
2022-10-08T14:51:16.848Z,50.55
2022-10-08T14:52:19.335Z,50.87
2022-10-08T14:53:21.897Z,49.98
2022-10-08T14:54:24.291Z,49.82
2022-10-08T14:55:26.803Z,52.35
2022-10-08T14:56:29.254Z,54.13
2022-10-08T14:57:35.590Z,48.76
2022-10-08T14:58:39.361Z,50.41
2022-10-08T14:59:43.305Z,52.97
2022-10-08T15:00:47.250Z,48.35
2022-10-08T15:01:49.708Z,47.15
2022-10-08T15:02:52.103Z,48.02
2022-10-08T15:03:56.324Z,50.24
2022-10-08T15:04:58.673Z,47.15
2022-10-08T15:06:02.709Z,47.40
2022-10-08T15:07:05.139Z,45.92
2022-10-08T15:08:09.243Z,46.52
2022-10-08T15:09:13.696Z,48.24
2022-10-08T15:10:16.204Z,47.51
2022-10-08T15:11:18.754Z,48.33
2022-10-08T15:12:22.834Z,44.84
2022-10-08T15:13:25.182Z,48.22
2022-10-08T15:14:27.679Z,48.73
2022-10-08T15:15:30.378Z,47.76
2022-10-08T15:25:03.223Z,43.73
2022-10-08T15:26:05.788Z,46.85
2022-10-08T15:27:08.250Z,47.23
2022-10-08T15:28:10.783Z,47.64
2022-10-08T15:29:13.195Z,47.96
2022-10-08T15:30:17.324Z,48.35
2022-10-08T15:31:19.748Z,49.00
2022-10-08T15:32:22.155Z,49.75
2022-10-08T15:33:24.658Z,46.54
2022-10-08T15:34:28.939Z,47.22
2022-10-08T15:35:31.313Z,50.26
2022-10-08T15:36:33.805Z,49.09
2022-10-08T15:37:36.261Z,49.03
2022-10-08T15:38:38.766Z,49.75
2022-10-08T15:39:42.894Z,48.52
2022-10-08T15:40:46.966Z,49.30
2022-10-08T15:41:49.235Z,49.42
2022-10-08T15:42:53.332Z,48.67
2022-10-08T15:43:55.663Z,48.81
2022-10-08T15:44:59.701Z,48.17
2022-10-08T15:46:02.130Z,48.27
2022-10-08T15:47:04.566Z,49.31
2022-10-08T15:48:07.046Z,49.03
2022-10-08T15:49:11.095Z,48.86
2022-10-08T15:50:14.452Z,47.91
2022-10-08T15:51:16.838Z,50.39
2022-10-08T15:52:19.361Z,48.94
2022-10-08T15:53:21.835Z,48.60
2022-10-08T15:54:24.318Z,49.85
2022-10-08T15:55:27.779Z,51.07
2022-10-08T15:56:30.108Z,53.43
2022-10-08T15:57:33.524Z,52.64
2022-10-08T15:58:49.719Z,53.80
2022-10-08T15:59:39.926Z,54.22
2022-10-08T16:00:42.288Z,54.64
2022-10-08T16:01:44.657Z,54.29
2022-10-08T16:02:49.159Z,55.69
2022-10-08T16:03:51.168Z,56.55
2022-10-08T16:04:55.259Z,56.64
2022-10-08T16:05:57.656Z,56.87
2022-10-08T16:07:01.713Z,56.62
2022-10-08T16:08:04.185Z,57.45
2022-10-08T16:09:08.201Z,57.71
2022-10-08T16:10:10.626Z,58.34
2022-10-08T16:11:13.143Z,58.90
2022-10-08T16:12:17.194Z,58.80
2022-10-08T16:13:19.510Z,58.40
2022-10-08T16:14:23.559Z,58.69
2022-10-08T16:15:25.947Z,59.01
2022-10-08T16:16:28.359Z,60.04
2022-10-08T16:17:30.872Z,60.96
2022-10-08T16:18:34.876Z,61.53
2022-10-08T16:19:39.042Z,61.38
2022-10-08T16:20:42.916Z,62.50
2022-10-08T16:21:45.235Z,62.27
2022-10-08T16:22:47.901Z,62.86
2022-10-08T16:23:50.155Z,62.61
2022-10-08T16:24:52.666Z,62.90
2022-10-08T16:25:55.128Z,63.24
2022-10-08T16:26:57.587Z,63.54
2022-10-08T16:28:01.719Z,63.83
2022-10-08T16:29:05.583Z,63.88
2022-10-08T16:30:07.907Z,65.10
2022-10-08T16:31:10.424Z,65.48
2022-10-08T16:32:12.795Z,65.57
2022-10-08T16:33:15.252Z,66.23
2022-10-08T16:34:17.724Z,66.14
2022-10-08T16:35:20.113Z,66.15
2022-10-08T16:36:22.605Z,65.21
2022-10-08T16:37:25.108Z,65.99
2022-10-08T16:38:27.542Z,66.77
2022-10-08T16:39:31.617Z,67.55
2022-10-08T16:49:01.482Z,70.74
2022-10-08T16:50:03.901Z,71.12
2022-10-08T16:51:06.381Z,71.19
2022-10-08T17:00:38.943Z,73.30
2022-10-08T17:10:12.490Z,74.75
2022-10-08T17:19:46.759Z,76.29
2022-10-08T17:20:49.527Z,76.73
2022-10-08T17:30:22.095Z,78.14
2022-10-08T17:39:54.121Z,78.96
2022-10-08T17:49:28.182Z,81.40
2022-10-08T17:59:00.883Z,80.53
2022-10-08T18:08:34.925Z,80.58
2022-10-08T18:18:07.034Z,79.70
2022-10-08T18:19:09.525Z,79.80
2022-10-08T18:28:42.816Z,80.40
2022-10-08T18:38:16.351Z,81.79
2022-10-08T18:47:56.567Z,82.99
2022-10-08T18:57:25.425Z,82.87
2022-10-08T19:06:59.814Z,82.49
2022-10-08T19:16:32.232Z,82.41
2022-10-08T19:26:07.550Z,82.09
2022-10-08T19:35:38.948Z,82.25
2022-10-08T19:45:14.564Z,83.09
2022-10-08T19:54:46.318Z,82.66
2022-10-08T20:04:20.453Z,81.90
2022-10-08T20:13:55.983Z,82.07
2022-10-08T20:23:28.026Z,81.14
2022-10-08T20:33:02.421Z,80.60
2022-10-08T20:42:36.263Z,80.97
2022-10-08T20:52:10.236Z,82.49
2022-10-08T21:01:43.770Z,83.40
2022-10-08T21:11:17.142Z,85.23
2022-10-08T21:20:50.974Z,85.28
2022-10-08T21:30:24.959Z,86.21
2022-10-08T21:40:00.325Z,87.13
2022-10-08T21:49:32.567Z,86.56
2022-10-08T21:59:05.614Z,86.44
2022-10-08T22:08:40.701Z,86.91
2022-10-08T22:18:14.316Z,87.65
2022-10-08T22:27:48.050Z,88.14
2022-10-08T22:37:20.161Z,89.22
2022-10-08T22:46:54.020Z,89.40
2022-10-08T22:56:29.321Z,90.62
2022-10-08T23:06:01.488Z,91.24
2022-10-08T23:15:36.603Z,90.21
2022-10-08T23:25:10.624Z,90.23
2022-10-08T23:34:42.791Z,90.93
2022-10-08T23:44:17.820Z,91.66
2022-10-08T23:53:50.293Z,91.80
